Reads Landing, Minnesota
Current Conditions -  °F | °C
As of 3:31 AM on Friday 28 Nov 2014 (Local Time) from KRGK Reporting Station
Light Snow Light Snow  
Wind Chill: -3°   Ceiling: 6500
Heat Index: 12°   Visibility: 7mi
Dew Point:   Wind: 14mph
Humidity: 79%   Direction: 130°SE
Pressure: 30.14"   Gusts: 18mph
Location:  44.4°N, 92.08°W
Report Text: KRGK 280931Z AUTO 13012G16KT 7SM -SN OVC065 M11/M14 A3014 RMK AO2
Loading
Personal Weather Stations






























Interactive Weather Map New forecast layout! Learn more

10-Day Weather Forecast

Advertisements
Track Severe Weather on mobile